Terminal Aerodrome Forecast
Issued by NWS

Home | Current Version | Previous Version | Graphics & Text | Print | Product List | Glossary On
Versions: 1 2 3 4 5 6 7 8 9 10 11 12 13 14 15 16 17 18 19
453
FTUS43 KICT 271135
TAFCNU
TAF
KCNU 271135Z 2712/2812 VRB03KT P6SM SKC
     FM271700 15007KT P6SM SCT110 BKN250
     FM272300 11008KT P6SM VCSH OVC040
     FM280300 10007KT P6SM -SHRA VCTS OVC080CB
     FM280600 12009KT P6SM BKN025=

USA.gov is the U.S. government's official web portal to all federal, state and local government web resources and services.